sensor_id;sensor_type;location;lat;lon;timestamp;temperature;humidity
21648;DHT22;10985;54.182;7.890;2023-04-15T00:02:15;8.60;99.90
21648;DHT22;10985;54.182;7.890;2023-04-15T00:04:43;8.60;99.90
21648;DHT22;10985;54.182;7.890;2023-04-15T00:07:08;8.60;99.90
21648;DHT22;10985;54.182;7.890;2023-04-15T00:09:34;8.60;99.90
21648;DHT22;10985;54.182;7.890;2023-04-15T00:12:00;8.60;99.90
21648;DHT22;10985;54.182;7.890;2023-04-15T00:14:26;8.60;99.90
21648;DHT22;10985;54.182;7.890;2023-04-15T00:16:52;8.60;99.90
21648;DHT22;10985;54.182;7.890;2023-04-15T00:19:20;8.60;99.90
21648;DHT22;10985;54.182;7.890;2023-04-15T00:21:46;8.60;99.90
21648;DHT22;10985;54.182;7.890;2023-04-15T00:24:12;8.60;99.90
21648;DHT22;10985;54.182;7.890;2023-04-15T00:26:38;8.60;99.90
21648;DHT22;10985;54.182;7.890;2023-04-15T00:29:03;8.60;99.90
21648;DHT22;10985;54.182;7.890;2023-04-15T00:31:30;8.50;99.90
21648;DHT22;10985;54.182;7.890;2023-04-15T00:33:56;8.50;99.90
21648;DHT22;10985;54.182;7.890;2023-04-15T00:36:22;8.50;99.90
21648;DHT22;10985;54.182;7.890;2023-04-15T00:38:47;8.50;99.90
21648;DHT22;10985;54.182;7.890;2023-04-15T00:41:13;8.50;99.90
21648;DHT22;10985;54.182;7.890;2023-04-15T00:43:39;8.50;99.90
21648;DHT22;10985;54.182;7.890;2023-04-15T00:46:05;8.40;99.90
21648;DHT22;10985;54.182;7.890;2023-04-15T00:48:31;8.50;99.90
21648;DHT22;10985;54.182;7.890;2023-04-15T00:50:57;8.40;99.90
21648;DHT22;10985;54.182;7.890;2023-04-15T00:53:22;8.40;99.90
21648;DHT22;10985;54.182;7.890;2023-04-15T00:55:48;8.40;99.90
21648;DHT22;10985;54.182;7.890;2023-04-15T00:58:14;8.40;99.90
21648;DHT22;10985;54.182;7.890;2023-04-15T01:00:41;8.40;99.90
21648;DHT22;10985;54.182;7.890;2023-04-15T01:03:07;8.30;99.90
21648;DHT22;10985;54.182;7.890;2023-04-15T01:05:33;8.30;99.90
21648;DHT22;10985;54.182;7.890;2023-04-15T01:07:59;8.30;99.90
21648;DHT22;10985;54.182;7.890;2023-04-15T01:10:24;8.30;99.90
21648;DHT22;10985;54.182;7.890;2023-04-15T01:12:50;8.30;99.90
21648;DHT22;10985;54.182;7.890;2023-04-15T01:15:16;8.30;99.90
21648;DHT22;10985;54.182;7.890;2023-04-15T01:17:41;8.30;99.90
21648;DHT22;10985;54.182;7.890;2023-04-15T01:20:07;8.30;99.90
21648;DHT22;10985;54.182;7.890;2023-04-15T01:22:37;8.30;99.90
21648;DHT22;10985;54.182;7.890;2023-04-15T01:25:11;8.30;99.90
21648;DHT22;10985;54.182;7.890;2023-04-15T01:27:40;8.30;99.90
21648;DHT22;10985;54.182;7.890;2023-04-15T01:30:07;8.30;99.90
21648;DHT22;10985;54.182;7.890;2023-04-15T01:32:33;8.30;99.90
21648;DHT22;10985;54.182;7.890;2023-04-15T01:34:59;8.30;99.90
21648;DHT22;10985;54.182;7.890;2023-04-15T01:37:24;8.30;99.90
21648;DHT22;10985;54.182;7.890;2023-04-15T01:39:50;8.20;99.90
21648;DHT22;10985;54.182;7.890;2023-04-15T01:42:16;8.30;99.90
21648;DHT22;10985;54.182;7.890;2023-04-15T01:44:42;8.30;99.90
21648;DHT22;10985;54.182;7.890;2023-04-15T01:47:07;8.30;99.90
21648;DHT22;10985;54.182;7.890;2023-04-15T01:49:33;8.30;99.90
21648;DHT22;10985;54.182;7.890;2023-04-15T01:51:59;8.30;99.90
21648;DHT22;10985;54.182;7.890;2023-04-15T01:54:25;8.30;99.90
21648;DHT22;10985;54.182;7.890;2023-04-15T01:56:51;8.30;99.90
21648;DHT22;10985;54.182;7.890;2023-04-15T01:59:17;8.30;99.90
21648;DHT22;10985;54.182;7.890;2023-04-15T02:01:43;8.30;99.90
21648;DHT22;10985;54.182;7.890;2023-04-15T02:04:09;8.30;99.90
21648;DHT22;10985;54.182;7.890;2023-04-15T02:06:43;8.30;99.90
21648;DHT22;10985;54.182;7.890;2023-04-15T02:09:09;8.30;99.90
21648;DHT22;10985;54.182;7.890;2023-04-15T02:11:35;8.30;99.90
21648;DHT22;10985;54.182;7.890;2023-04-15T02:14:04;8.30;99.90
21648;DHT22;10985;54.182;7.890;2023-04-15T02:16:31;8.30;99.90
21648;DHT22;10985;54.182;7.890;2023-04-15T02:18:58;8.30;99.90
21648;DHT22;10985;54.182;7.890;2023-04-15T02:21:25;8.30;99.90
21648;DHT22;10985;54.182;7.890;2023-04-15T02:23:51;8.30;99.90
21648;DHT22;10985;54.182;7.890;2023-04-15T02:26:18;8.30;99.90
21648;DHT22;10985;54.182;7.890;2023-04-15T02:28:43;8.20;99.90
21648;DHT22;10985;54.182;7.890;2023-04-15T02:31:09;8.20;99.90
21648;DHT22;10985;54.182;7.890;2023-04-15T02:33:35;8.20;99.90
21648;DHT22;10985;54.182;7.890;2023-04-15T02:36:01;8.20;99.90
21648;DHT22;10985;54.182;7.890;2023-04-15T02:38:26;8.20;99.90
21648;DHT22;10985;54.182;7.890;2023-04-15T02:40:52;8.20;99.90
21648;DHT22;10985;54.182;7.890;2023-04-15T02:43:17;8.30;99.90
21648;DHT22;10985;54.182;7.890;2023-04-15T02:45:44;8.20;99.90
21648;DHT22;10985;54.182;7.890;2023-04-15T02:48:10;8.20;99.90
21648;DHT22;10985;54.182;7.890;2023-04-15T02:50:36;8.20;99.90
21648;DHT22;10985;54.182;7.890;2023-04-15T02:53:03;8.20;99.90
21648;DHT22;10985;54.182;7.890;2023-04-15T02:55:30;8.20;99.90
21648;DHT22;10985;54.182;7.890;2023-04-15T02:57:56;8.20;99.90
21648;DHT22;10985;54.182;7.890;2023-04-15T03:00:23;8.20;99.90
21648;DHT22;10985;54.182;7.890;2023-04-15T03:02:49;8.20;99.90
21648;DHT22;10985;54.182;7.890;2023-04-15T03:05:21;8.20;99.90
21648;DHT22;10985;54.182;7.890;2023-04-15T03:07:49;8.20;99.90
21648;DHT22;10985;54.182;7.890;2023-04-15T03:10:14;8.30;99.90
21648;DHT22;10985;54.182;7.890;2023-04-15T03:12:40;8.30;99.90
21648;DHT22;10985;54.182;7.890;2023-04-15T03:15:07;8.30;99.90
21648;DHT22;10985;54.182;7.890;2023-04-15T03:17:33;8.30;99.90
21648;DHT22;10985;54.182;7.890;2023-04-15T03:19:59;8.30;99.90
21648;DHT22;10985;54.182;7.890;2023-04-15T03:22:25;8.30;99.90
21648;DHT22;10985;54.182;7.890;2023-04-15T03:24:50;8.30;99.90
21648;DHT22;10985;54.182;7.890;2023-04-15T03:27:16;8.40;99.90
21648;DHT22;10985;54.182;7.890;2023-04-15T03:29:41;8.30;99.90
21648;DHT22;10985;54.182;7.890;2023-04-15T03:32:07;8.30;99.90
21648;DHT22;10985;54.182;7.890;2023-04-15T03:34:32;8.40;99.90
21648;DHT22;10985;54.182;7.890;2023-04-15T03:36:58;8.30;99.90
21648;DHT22;10985;54.182;7.890;2023-04-15T03:39:23;8.30;99.90
21648;DHT22;10985;54.182;7.890;2023-04-15T03:41:49;8.30;99.90
21648;DHT22;10985;54.182;7.890;2023-04-15T03:44:14;8.30;99.90
21648;DHT22;10985;54.182;7.890;2023-04-15T03:46:40;8.20;99.90
21648;DHT22;10985;54.182;7.890;2023-04-15T03:49:06;8.20;99.90
21648;DHT22;10985;54.182;7.890;2023-04-15T03:51:31;8.30;99.90
21648;DHT22;10985;54.182;7.890;2023-04-15T03:53:57;8.20;99.90
21648;DHT22;10985;54.182;7.890;2023-04-15T03:56:23;8.30;99.90
21648;DHT22;10985;54.182;7.890;2023-04-15T03:58:48;8.20;99.90
21648;DHT22;10985;54.182;7.890;2023-04-15T04:01:14;8.30;99.90
21648;DHT22;10985;54.182;7.890;2023-04-15T04:03:40;8.20;99.90
21648;DHT22;10985;54.182;7.890;2023-04-15T04:06:06;8.20;99.90
21648;DHT22;10985;54.182;7.890;2023-04-15T04:08:32;8.20;99.90
21648;DHT22;10985;54.182;7.890;2023-04-15T04:10:57;8.20;99.90
21648;DHT22;10985;54.182;7.890;2023-04-15T04:13:23;8.20;99.90
21648;DHT22;10985;54.182;7.890;2023-04-15T04:15:49;8.20;99.90
21648;DHT22;10985;54.182;7.890;2023-04-15T04:18:14;8.20;99.90
21648;DHT22;10985;54.182;7.890;2023-04-15T04:20:40;8.20;99.90
21648;DHT22;10985;54.182;7.890;2023-04-15T04:23:06;8.20;99.90
21648;DHT22;10985;54.182;7.890;2023-04-15T04:25:31;8.20;99.90
21648;DHT22;10985;54.182;7.890;2023-04-15T04:27:57;8.20;99.90
21648;DHT22;10985;54.182;7.890;2023-04-15T04:30:23;8.20;99.90
21648;DHT22;10985;54.182;7.890;2023-04-15T04:32:49;8.20;99.90
21648;DHT22;10985;54.182;7.890;2023-04-15T04:35:15;8.20;99.90
21648;DHT22;10985;54.182;7.890;2023-04-15T04:37:40;8.20;99.90
21648;DHT22;10985;54.182;7.890;2023-04-15T04:40:06;8.20;99.90
21648;DHT22;10985;54.182;7.890;2023-04-15T04:42:32;8.20;99.90
21648;DHT22;10985;54.182;7.890;2023-04-15T04:44:58;8.20;99.90
21648;DHT22;10985;54.182;7.890;2023-04-15T04:47:23;8.20;99.90
21648;DHT22;10985;54.182;7.890;2023-04-15T04:49:49;8.20;99.90
21648;DHT22;10985;54.182;7.890;2023-04-15T04:52:14;8.20;99.90
21648;DHT22;10985;54.182;7.890;2023-04-15T04:54:40;8.20;99.90
21648;DHT22;10985;54.182;7.890;2023-04-15T04:57:05;8.20;99.90
21648;DHT22;10985;54.182;7.890;2023-04-15T04:59:32;8.20;99.90
21648;DHT22;10985;54.182;7.890;2023-04-15T05:01:58;8.20;99.90
21648;DHT22;10985;54.182;7.890;2023-04-15T05:04:24;8.20;99.90
21648;DHT22;10985;54.182;7.890;2023-04-15T05:06:50;8.20;99.90
21648;DHT22;10985;54.182;7.890;2023-04-15T05:09:16;8.20;99.90
21648;DHT22;10985;54.182;7.890;2023-04-15T05:11:41;8.20;99.90
21648;DHT22;10985;54.182;7.890;2023-04-15T05:14:07;8.20;99.90
21648;DHT22;10985;54.182;7.890;2023-04-15T05:16:32;8.20;99.90
21648;DHT22;10985;54.182;7.890;2023-04-15T05:18:58;8.20;99.90
21648;DHT22;10985;54.182;7.890;2023-04-15T05:21:23;8.20;99.90
21648;DHT22;10985;54.182;7.890;2023-04-15T05:23:49;8.20;99.90
21648;DHT22;10985;54.182;7.890;2023-04-15T05:26:14;8.20;99.90
21648;DHT22;10985;54.182;7.890;2023-04-15T05:28:40;8.20;99.90
21648;DHT22;10985;54.182;7.890;2023-04-15T05:31:05;8.20;99.90
21648;DHT22;10985;54.182;7.890;2023-04-15T05:33:31;8.20;99.90
21648;DHT22;10985;54.182;7.890;2023-04-15T05:35:57;8.20;99.90
21648;DHT22;10985;54.182;7.890;2023-04-15T05:38:22;8.30;99.90
21648;DHT22;10985;54.182;7.890;2023-04-15T05:40:48;8.20;99.90
21648;DHT22;10985;54.182;7.890;2023-04-15T05:43:13;8.30;99.90
21648;DHT22;10985;54.182;7.890;2023-04-15T05:45:39;8.30;99.90
21648;DHT22;10985;54.182;7.890;2023-04-15T05:48:04;8.30;99.90
21648;DHT22;10985;54.182;7.890;2023-04-15T05:50:30;8.30;99.90
21648;DHT22;10985;54.182;7.890;2023-04-15T05:52:56;8.30;99.90
21648;DHT22;10985;54.182;7.890;2023-04-15T05:55:21;8.30;99.90
21648;DHT22;10985;54.182;7.890;2023-04-15T05:57:47;8.30;99.90
21648;DHT22;10985;54.182;7.890;2023-04-15T06:00:13;8.40;99.90
21648;DHT22;10985;54.182;7.890;2023-04-15T06:02:39;8.30;99.90
21648;DHT22;10985;54.182;7.890;2023-04-15T06:05:05;8.30;99.90
21648;DHT22;10985;54.182;7.890;2023-04-15T06:07:35;8.40;99.90
21648;DHT22;10985;54.182;7.890;2023-04-15T06:10:02;8.30;99.90
21648;DHT22;10985;54.182;7.890;2023-04-15T06:12:27;8.30;99.90
21648;DHT22;10985;54.182;7.890;2023-04-15T06:14:53;8.30;99.90
21648;DHT22;10985;54.182;7.890;2023-04-15T06:17:18;8.40;99.90
21648;DHT22;10985;54.182;7.890;2023-04-15T06:19:44;8.30;99.90
21648;DHT22;10985;54.182;7.890;2023-04-15T06:22:10;8.30;99.90
21648;DHT22;10985;54.182;7.890;2023-04-15T06:24:35;8.30;99.90
21648;DHT22;10985;54.182;7.890;2023-04-15T06:27:01;8.30;99.90
21648;DHT22;10985;54.182;7.890;2023-04-15T06:29:27;8.30;99.90
21648;DHT22;10985;54.182;7.890;2023-04-15T06:31:53;8.30;99.90
21648;DHT22;10985;54.182;7.890;2023-04-15T06:34:18;8.30;99.90
21648;DHT22;10985;54.182;7.890;2023-04-15T06:36:44;8.30;99.90
21648;DHT22;10985;54.182;7.890;2023-04-15T06:39:09;8.30;99.90
21648;DHT22;10985;54.182;7.890;2023-04-15T06:41:35;8.30;99.90
21648;DHT22;10985;54.182;7.890;2023-04-15T06:44:01;8.30;99.90
21648;DHT22;10985;54.182;7.890;2023-04-15T06:46:26;8.30;99.90
21648;DHT22;10985;54.182;7.890;2023-04-15T06:48:52;8.30;99.90
21648;DHT22;10985;54.182;7.890;2023-04-15T06:51:18;8.30;99.90
21648;DHT22;10985;54.182;7.890;2023-04-15T06:53:43;8.30;99.90
21648;DHT22;10985;54.182;7.890;2023-04-15T06:56:09;8.30;99.90
21648;DHT22;10985;54.182;7.890;2023-04-15T06:58:35;8.30;99.90
21648;DHT22;10985;54.182;7.890;2023-04-15T07:01:00;8.30;99.90
21648;DHT22;10985;54.182;7.890;2023-04-15T07:03:26;8.30;99.90
21648;DHT22;10985;54.182;7.890;2023-04-15T07:05:52;8.30;99.90
21648;DHT22;10985;54.182;7.890;2023-04-15T07:08:18;8.30;99.90
21648;DHT22;10985;54.182;7.890;2023-04-15T07:10:44;8.30;99.90
21648;DHT22;10985;54.182;7.890;2023-04-15T07:13:10;8.30;99.90
21648;DHT22;10985;54.182;7.890;2023-04-15T07:15:36;8.30;99.90
21648;DHT22;10985;54.182;7.890;2023-04-15T07:18:01;8.30;99.90
21648;DHT22;10985;54.182;7.890;2023-04-15T07:20:27;8.40;99.90
21648;DHT22;10985;54.182;7.890;2023-04-15T07:22:52;8.40;99.90
21648;DHT22;10985;54.182;7.890;2023-04-15T07:25:18;8.40;99.90
21648;DHT22;10985;54.182;7.890;2023-04-15T07:27:43;8.40;99.90
21648;DHT22;10985;54.182;7.890;2023-04-15T07:30:10;8.40;99.90
21648;DHT22;10985;54.182;7.890;2023-04-15T07:32:35;8.30;99.90
21648;DHT22;10985;54.182;7.890;2023-04-15T07:35:01;8.30;99.90
21648;DHT22;10985;54.182;7.890;2023-04-15T07:37:28;8.30;99.90
21648;DHT22;10985;54.182;7.890;2023-04-15T07:39:54;8.30;99.90
21648;DHT22;10985;54.182;7.890;2023-04-15T07:42:19;8.30;99.90
21648;DHT22;10985;54.182;7.890;2023-04-15T07:44:45;8.30;99.90
21648;DHT22;10985;54.182;7.890;2023-04-15T07:47:11;8.30;99.90
21648;DHT22;10985;54.182;7.890;2023-04-15T07:49:36;8.30;99.90
21648;DHT22;10985;54.182;7.890;2023-04-15T07:52:02;8.30;99.90
21648;DHT22;10985;54.182;7.890;2023-04-15T07:54:28;8.30;99.90
21648;DHT22;10985;54.182;7.890;2023-04-15T07:56:53;8.30;99.90
21648;DHT22;10985;54.182;7.890;2023-04-15T07:59:19;8.30;99.90
21648;DHT22;10985;54.182;7.890;2023-04-15T08:01:45;8.30;99.90
21648;DHT22;10985;54.182;7.890;2023-04-15T08:04:10;8.30;99.90
21648;DHT22;10985;54.182;7.890;2023-04-15T08:06:36;8.30;99.90
21648;DHT22;10985;54.182;7.890;2023-04-15T08:09:04;8.30;99.90
21648;DHT22;10985;54.182;7.890;2023-04-15T08:11:29;8.30;99.90
21648;DHT22;10985;54.182;7.890;2023-04-15T08:13:55;8.30;99.90
21648;DHT22;10985;54.182;7.890;2023-04-15T08:16:23;8.30;99.90
21648;DHT22;10985;54.182;7.890;2023-04-15T08:18:49;8.30;99.90
21648;DHT22;10985;54.182;7.890;2023-04-15T08:21:16;8.30;99.90
21648;DHT22;10985;54.182;7.890;2023-04-15T08:23:43;8.30;99.90
21648;DHT22;10985;54.182;7.890;2023-04-15T08:26:09;8.30;99.90
21648;DHT22;10985;54.182;7.890;2023-04-15T08:28:36;8.30;99.90
21648;DHT22;10985;54.182;7.890;2023-04-15T08:31:02;8.30;99.90
21648;DHT22;10985;54.182;7.890;2023-04-15T08:33:28;8.30;99.90
21648;DHT22;10985;54.182;7.890;2023-04-15T08:35:53;8.30;99.90
21648;DHT22;10985;54.182;7.890;2023-04-15T08:38:19;8.30;99.90
21648;DHT22;10985;54.182;7.890;2023-04-15T08:40:45;8.30;99.90
21648;DHT22;10985;54.182;7.890;2023-04-15T08:43:26;8.30;99.90
21648;DHT22;10985;54.182;7.890;2023-04-15T08:45:53;8.40;99.90
21648;DHT22;10985;54.182;7.890;2023-04-15T08:48:19;8.40;99.90
21648;DHT22;10985;54.182;7.890;2023-04-15T08:50:46;8.40;99.90
21648;DHT22;10985;54.182;7.890;2023-04-15T08:53:12;8.40;99.90
21648;DHT22;10985;54.182;7.890;2023-04-15T08:55:45;8.40;99.90
21648;DHT22;10985;54.182;7.890;2023-04-15T08:58:12;8.40;99.90
21648;DHT22;10985;54.182;7.890;2023-04-15T09:00:38;8.40;99.90
21648;DHT22;10985;54.182;7.890;2023-04-15T09:03:05;8.30;99.90
21648;DHT22;10985;54.182;7.890;2023-04-15T09:05:36;8.30;99.90
21648;DHT22;10985;54.182;7.890;2023-04-15T09:08:02;8.30;99.90
21648;DHT22;10985;54.182;7.890;2023-04-15T09:10:28;8.30;99.90
21648;DHT22;10985;54.182;7.890;2023-04-15T09:12:54;8.30;99.90
21648;DHT22;10985;54.182;7.890;2023-04-15T09:15:20;8.30;99.90
21648;DHT22;10985;54.182;7.890;2023-04-15T09:17:47;8.30;99.90
21648;DHT22;10985;54.182;7.890;2023-04-15T09:20:14;8.30;99.90
21648;DHT22;10985;54.182;7.890;2023-04-15T09:22:41;8.30;99.90
21648;DHT22;10985;54.182;7.890;2023-04-15T09:27:58;8.30;99.90
21648;DHT22;10985;54.182;7.890;2023-04-15T09:30:25;8.30;99.90
21648;DHT22;10985;54.182;7.890;2023-04-15T09:32:53;8.30;99.90
21648;DHT22;10985;54.182;7.890;2023-04-15T09:35:19;8.30;99.90
21648;DHT22;10985;54.182;7.890;2023-04-15T09:37:45;8.30;99.90
21648;DHT22;10985;54.182;7.890;2023-04-15T09:40:12;8.30;99.90
21648;DHT22;10985;54.182;7.890;2023-04-15T09:42:56;8.40;99.90
21648;DHT22;10985;54.182;7.890;2023-04-15T09:45:22;8.30;99.90
21648;DHT22;10985;54.182;7.890;2023-04-15T09:47:47;8.40;99.90
21648;DHT22;10985;54.182;7.890;2023-04-15T09:50:13;8.40;99.90
21648;DHT22;10985;54.182;7.890;2023-04-15T09:52:43;8.40;99.90
21648;DHT22;10985;54.182;7.890;2023-04-15T09:55:09;8.40;99.90
21648;DHT22;10985;54.182;7.890;2023-04-15T09:57:37;8.40;99.90
21648;DHT22;10985;54.182;7.890;2023-04-15T10:00:04;8.40;99.90
21648;DHT22;10985;54.182;7.890;2023-04-15T10:02:31;8.40;99.90
21648;DHT22;10985;54.182;7.890;2023-04-15T10:04:56;8.40;99.90
21648;DHT22;10985;54.182;7.890;2023-04-15T10:07:23;8.40;99.90
21648;DHT22;10985;54.182;7.890;2023-04-15T10:09:50;8.40;99.90
21648;DHT22;10985;54.182;7.890;2023-04-15T10:12:16;8.40;99.90
21648;DHT22;10985;54.182;7.890;2023-04-15T10:14:43;8.40;99.90
21648;DHT22;10985;54.182;7.890;2023-04-15T10:17:10;8.40;99.90
21648;DHT22;10985;54.182;7.890;2023-04-15T10:19:39;8.40;99.90
21648;DHT22;10985;54.182;7.890;2023-04-15T10:22:05;8.40;99.90
21648;DHT22;10985;54.182;7.890;2023-04-15T10:24:32;8.40;99.90
21648;DHT22;10985;54.182;7.890;2023-04-15T10:26:58;8.40;99.90
21648;DHT22;10985;54.182;7.890;2023-04-15T10:29:24;8.30;99.90
21648;DHT22;10985;54.182;7.890;2023-04-15T10:31:56;8.40;99.90
21648;DHT22;10985;54.182;7.890;2023-04-15T10:34:23;8.30;99.90
21648;DHT22;10985;54.182;7.890;2023-04-15T10:36:49;8.40;99.90
21648;DHT22;10985;54.182;7.890;2023-04-15T10:42:18;8.30;99.90
21648;DHT22;10985;54.182;7.890;2023-04-15T10:44:48;8.40;99.90
21648;DHT22;10985;54.182;7.890;2023-04-15T10:47:19;8.30;99.90
21648;DHT22;10985;54.182;7.890;2023-04-15T10:49:50;8.40;99.90
21648;DHT22;10985;54.182;7.890;2023-04-15T10:52:22;8.40;99.90
21648;DHT22;10985;54.182;7.890;2023-04-15T10:54:48;8.40;99.90
21648;DHT22;10985;54.182;7.890;2023-04-15T10:57:16;8.40;99.90
21648;DHT22;10985;54.182;7.890;2023-04-15T11:02:53;8.40;99.90
21648;DHT22;10985;54.182;7.890;2023-04-15T11:05:21;8.40;99.90
21648;DHT22;10985;54.182;7.890;2023-04-15T11:07:48;8.40;99.90
21648;DHT22;10985;54.182;7.890;2023-04-15T11:12:43;8.50;99.90
21648;DHT22;10985;54.182;7.890;2023-04-15T11:17:58;8.50;99.90
21648;DHT22;10985;54.182;7.890;2023-04-15T11:20:24;8.40;99.90
21648;DHT22;10985;54.182;7.890;2023-04-15T11:22:52;8.40;99.90
21648;DHT22;10985;54.182;7.890;2023-04-15T11:25:22;8.40;99.90
21648;DHT22;10985;54.182;7.890;2023-04-15T11:27:48;8.50;99.90
21648;DHT22;10985;54.182;7.890;2023-04-15T11:30:22;8.50;99.90
21648;DHT22;10985;54.182;7.890;2023-04-15T11:32:49;8.50;99.90
21648;DHT22;10985;54.182;7.890;2023-04-15T11:35:16;8.50;99.90
21648;DHT22;10985;54.182;7.890;2023-04-15T11:37:43;8.50;99.90
21648;DHT22;10985;54.182;7.890;2023-04-15T11:40:09;8.50;99.90
21648;DHT22;10985;54.182;7.890;2023-04-15T11:42:35;8.50;99.90
21648;DHT22;10985;54.182;7.890;2023-04-15T11:45:11;8.50;99.90
21648;DHT22;10985;54.182;7.890;2023-04-15T11:47:37;8.50;99.90
21648;DHT22;10985;54.182;7.890;2023-04-15T11:50:19;8.50;99.90
21648;DHT22;10985;54.182;7.890;2023-04-15T11:52:56;8.50;99.90
21648;DHT22;10985;54.182;7.890;2023-04-15T11:55:22;8.50;99.90
21648;DHT22;10985;54.182;7.890;2023-04-15T11:57:50;8.50;99.90
21648;DHT22;10985;54.182;7.890;2023-04-15T12:00:15;8.50;99.90
21648;DHT22;10985;54.182;7.890;2023-04-15T12:02:42;8.50;99.90
21648;DHT22;10985;54.182;7.890;2023-04-15T12:05:08;8.60;99.90
21648;DHT22;10985;54.182;7.890;2023-04-15T12:07:57;8.60;99.90
21648;DHT22;10985;54.182;7.890;2023-04-15T12:10:25;8.60;99.90
21648;DHT22;10985;54.182;7.890;2023-04-15T12:12:54;8.60;99.90
21648;DHT22;10985;54.182;7.890;2023-04-15T12:15:23;8.60;99.90
21648;DHT22;10985;54.182;7.890;2023-04-15T12:17:48;8.70;99.90
21648;DHT22;10985;54.182;7.890;2023-04-15T12:20:24;8.70;99.90
21648;DHT22;10985;54.182;7.890;2023-04-15T12:22:50;8.70;99.90
21648;DHT22;10985;54.182;7.890;2023-04-15T12:25:15;8.70;99.90
21648;DHT22;10985;54.182;7.890;2023-04-15T12:27:41;8.80;99.90
21648;DHT22;10985;54.182;7.890;2023-04-15T12:30:14;8.80;99.90
21648;DHT22;10985;54.182;7.890;2023-04-15T12:32:40;8.80;99.90
21648;DHT22;10985;54.182;7.890;2023-04-15T12:35:07;8.80;99.90
21648;DHT22;10985;54.182;7.890;2023-04-15T12:37:33;8.80;99.90
21648;DHT22;10985;54.182;7.890;2023-04-15T12:39:58;8.90;99.90
21648;DHT22;10985;54.182;7.890;2023-04-15T12:42:24;8.90;99.90
21648;DHT22;10985;54.182;7.890;2023-04-15T12:44:50;9.00;99.90
21648;DHT22;10985;54.182;7.890;2023-04-15T12:47:15;9.00;99.90
21648;DHT22;10985;54.182;7.890;2023-04-15T12:49:41;9.10;99.90
21648;DHT22;10985;54.182;7.890;2023-04-15T12:52:06;9.10;99.90
21648;DHT22;10985;54.182;7.890;2023-04-15T12:54:33;9.10;99.90
21648;DHT22;10985;54.182;7.890;2023-04-15T12:57:01;9.20;99.90
21648;DHT22;10985;54.182;7.890;2023-04-15T12:59:27;9.20;99.90
21648;DHT22;10985;54.182;7.890;2023-04-15T13:01:53;9.20;99.90
21648;DHT22;10985;54.182;7.890;2023-04-15T13:04:19;9.20;99.90
21648;DHT22;10985;54.182;7.890;2023-04-15T13:06:45;9.30;99.90
21648;DHT22;10985;54.182;7.890;2023-04-15T13:09:11;9.30;99.90
21648;DHT22;10985;54.182;7.890;2023-04-15T13:11:36;9.30;99.90
21648;DHT22;10985;54.182;7.890;2023-04-15T13:14:04;9.30;99.90
21648;DHT22;10985;54.182;7.890;2023-04-15T13:16:30;9.30;99.90
21648;DHT22;10985;54.182;7.890;2023-04-15T13:18:56;9.30;99.90
21648;DHT22;10985;54.182;7.890;2023-04-15T13:21:22;9.40;99.90
21648;DHT22;10985;54.182;7.890;2023-04-15T13:23:48;9.30;99.90
21648;DHT22;10985;54.182;7.890;2023-04-15T13:26:14;9.40;99.90
21648;DHT22;10985;54.182;7.890;2023-04-15T13:28:40;9.30;99.90
21648;DHT22;10985;54.182;7.890;2023-04-15T13:31:06;9.40;99.90
21648;DHT22;10985;54.182;7.890;2023-04-15T13:33:31;9.40;99.90
21648;DHT22;10985;54.182;7.890;2023-04-15T13:35:57;9.40;99.90
21648;DHT22;10985;54.182;7.890;2023-04-15T13:38:23;9.40;99.90
21648;DHT22;10985;54.182;7.890;2023-04-15T13:40:49;9.40;99.90
21648;DHT22;10985;54.182;7.890;2023-04-15T13:43:15;9.40;99.90
21648;DHT22;10985;54.182;7.890;2023-04-15T13:45:42;9.40;99.90
21648;DHT22;10985;54.182;7.890;2023-04-15T13:48:07;9.40;99.90
21648;DHT22;10985;54.182;7.890;2023-04-15T13:50:32;9.40;99.90
21648;DHT22;10985;54.182;7.890;2023-04-15T13:52:58;9.40;99.90
21648;DHT22;10985;54.182;7.890;2023-04-15T13:55:23;9.40;99.90
21648;DHT22;10985;54.182;7.890;2023-04-15T13:57:50;9.40;99.90
21648;DHT22;10985;54.182;7.890;2023-04-15T14:00:15;9.40;99.90
21648;DHT22;10985;54.182;7.890;2023-04-15T14:02:41;9.40;99.90
21648;DHT22;10985;54.182;7.890;2023-04-15T14:05:07;9.40;99.90
21648;DHT22;10985;54.182;7.890;2023-04-15T14:07:33;9.40;99.90
21648;DHT22;10985;54.182;7.890;2023-04-15T14:09:59;9.40;99.90
21648;DHT22;10985;54.182;7.890;2023-04-15T14:12:25;9.40;99.90
21648;DHT22;10985;54.182;7.890;2023-04-15T14:14:50;9.40;99.90
21648;DHT22;10985;54.182;7.890;2023-04-15T14:17:16;9.40;99.90
21648;DHT22;10985;54.182;7.890;2023-04-15T14:19:41;9.30;99.90
21648;DHT22;10985;54.182;7.890;2023-04-15T14:22:07;9.40;99.90
21648;DHT22;10985;54.182;7.890;2023-04-15T14:24:32;9.30;99.90
21648;DHT22;10985;54.182;7.890;2023-04-15T14:26:58;9.30;99.90
21648;DHT22;10985;54.182;7.890;2023-04-15T14:29:24;9.30;99.90
21648;DHT22;10985;54.182;7.890;2023-04-15T14:31:49;9.30;99.90
21648;DHT22;10985;54.182;7.890;2023-04-15T14:34:15;9.30;99.90
21648;DHT22;10985;54.182;7.890;2023-04-15T14:36:41;9.30;99.90
21648;DHT22;10985;54.182;7.890;2023-04-15T14:39:07;9.30;99.90
21648;DHT22;10985;54.182;7.890;2023-04-15T14:41:33;9.30;99.90
21648;DHT22;10985;54.182;7.890;2023-04-15T14:43:59;9.30;99.90
21648;DHT22;10985;54.182;7.890;2023-04-15T14:46:25;9.40;99.90
21648;DHT22;10985;54.182;7.890;2023-04-15T14:48:50;9.40;99.90
21648;DHT22;10985;54.182;7.890;2023-04-15T14:51:16;9.40;99.90
21648;DHT22;10985;54.182;7.890;2023-04-15T14:53:42;9.50;99.90
21648;DHT22;10985;54.182;7.890;2023-04-15T14:56:08;9.50;99.90
21648;DHT22;10985;54.182;7.890;2023-04-15T14:58:34;9.50;99.90
21648;DHT22;10985;54.182;7.890;2023-04-15T15:01:00;9.50;99.90
21648;DHT22;10985;54.182;7.890;2023-04-15T15:03:27;9.50;99.90
21648;DHT22;10985;54.182;7.890;2023-04-15T15:05:52;9.50;99.90
21648;DHT22;10985;54.182;7.890;2023-04-15T15:08:18;9.60;99.90
21648;DHT22;10985;54.182;7.890;2023-04-15T15:10:43;9.60;99.90
21648;DHT22;10985;54.182;7.890;2023-04-15T15:13:09;9.70;99.90
21648;DHT22;10985;54.182;7.890;2023-04-15T15:15:36;9.70;99.90
21648;DHT22;10985;54.182;7.890;2023-04-15T15:18:02;9.70;99.90
21648;DHT22;10985;54.182;7.890;2023-04-15T15:20:28;9.70;99.90
21648;DHT22;10985;54.182;7.890;2023-04-15T15:22:54;9.80;99.90
21648;DHT22;10985;54.182;7.890;2023-04-15T15:25:20;9.70;99.90
21648;DHT22;10985;54.182;7.890;2023-04-15T15:27:45;9.80;99.90
21648;DHT22;10985;54.182;7.890;2023-04-15T15:30:11;9.80;99.90
21648;DHT22;10985;54.182;7.890;2023-04-15T15:32:40;9.80;99.90
21648;DHT22;10985;54.182;7.890;2023-04-15T15:35:06;9.80;99.90
21648;DHT22;10985;54.182;7.890;2023-04-15T15:37:32;9.80;99.90
21648;DHT22;10985;54.182;7.890;2023-04-15T15:39:57;9.80;99.90
21648;DHT22;10985;54.182;7.890;2023-04-15T15:42:24;9.90;99.90
21648;DHT22;10985;54.182;7.890;2023-04-15T15:44:49;9.90;99.90
21648;DHT22;10985;54.182;7.890;2023-04-15T15:47:17;10.00;99.90
21648;DHT22;10985;54.182;7.890;2023-04-15T15:49:43;9.90;99.90
21648;DHT22;10985;54.182;7.890;2023-04-15T15:52:09;9.90;99.90
21648;DHT22;10985;54.182;7.890;2023-04-15T15:54:35;9.90;99.90